Hays Regional Airport Hays US
ICAO: KHYS
IATA: HYS
Category: Medium
Scheduled Services: No

Elevation: 1999 ft
TransAlt. 18000 ft.

Airport Communications:
AWOS 3:125.525
KANSAS CITY CNTR:124.4
WICHITA RDO:122.3
CTAF/UNICOM:122.8

KHYS Zoom In..

Runways:

(A) RW 04 length 4501 ft width 75 ft
---- / hdg 40

(B) RW 16 length 6501 ft width 100 ft
---- / hdg 159

(C) RW 22 length 4501 ft width 75 ft
---- / hdg 220

(D) RW 34 length 6501 ft width 100 ft
ILS 111.50 / hdg 339

Location; KHYS
Day. 24 / Time. 01.56 Zulu
* Altimeter: 30.30
* Temperature: -02° c. -28.4°f.
* Wind from: 300° Speed 09 kn.
Dewpoint: -04° c.
Visibility: 10 Statute Miles.
Clouds: Clear (automated report).

KHYS 240156Z AUTO 30009KT 10SM CLR M02/M04 A3030 RMK AO2 SLP286 T10171039 FZRANO


Wind From 300°
Speed 09 kn.

YouTube Music Video
 
jpsmedia.com for Web Design  worldairports.se 2018   terms of use